Time;durP1;ratioP1;P1;durP2;ratioP2;P2;SDS_P1;SDS_P2;PMS_P1;PMS_P2;Temp;Humidity;BMP_temperature;BMP_pressure;BME280_temperature;BME280_humidity;BME280_pressure;Samples;Min_cycle;Max_cycle;Signal;HPM_P1;HPM_P2
2023/11/03 00:01:26;;;;;;;10.90;6.28;;;;;;;13.11;100.00;98475.66;5009894;28;20409;-71
2023/11/03 00:03:51;;;;;;;9.45;6.63;;;;;;;13.19;100.00;98457.28;5009856;28;20032;-71
2023/11/03 00:06:17;;;;;;;9.77;6.28;;;;;;;13.19;100.00;98460.78;5009811;28;20025;-71
2023/11/03 00:08:42;;;;;;;8.98;6.55;;;;;;;13.15;100.00;98443.50;4977439;28;20415;-71
2023/11/03 00:11:07;;;;;;;8.07;6.57;;;;;;;13.14;100.00;98449.97;5010120;28;20037;-71
2023/11/03 00:13:34;;;;;;;10.30;6.88;;;;;;;13.36;100.00;98450.50;5010034;28;20033;-71
2023/11/03 00:16:00;;;;;;;9.55;6.55;;;;;;;13.14;100.00;98442.72;5026002;28;20088;-72
2023/11/03 00:18:26;;;;;;;10.20;6.70;;;;;;;13.32;100.00;98425.13;5011214;28;20489;-71
2023/11/03 00:20:51;;;;;;;8.45;6.63;;;;;;;13.04;100.00;98434.59;5009805;28;20057;-72
2023/11/03 00:23:17;;;;;;;8.50;6.38;;;;;;;12.89;100.00;98432.75;5011012;28;20460;-71
2023/11/03 00:25:42;;;;;;;9.27;6.78;;;;;;;13.01;100.00;98435.16;5009671;28;20064;-71
2023/11/03 00:28:08;;;;;;;12.13;6.90;;;;;;;13.16;100.00;98416.22;4992940;28;20117;-71
2023/11/03 00:30:35;;;;;;;9.18;6.68;;;;;;;13.17;100.00;98398.13;5011048;28;20092;-71
2023/11/03 00:33:00;;;;;;;10.20;6.50;;;;;;;13.62;100.00;98413.38;4993182;28;20513;-71
2023/11/03 00:35:26;;;;;;;10.75;5.93;;;;;;;13.15;100.00;98395.72;5011139;28;20133;-71
2023/11/03 00:37:53;;;;;;;11.68;6.78;;;;;;;13.20;100.00;98399.47;5009581;28;20025;-71
2023/11/03 00:40:18;;;;;;;9.45;6.93;;;;;;;12.84;100.00;98394.97;5010787;28;20030;-71
2023/11/03 00:42:44;;;;;;;10.43;6.88;;;;;;;13.09;100.00;98399.50;5010715;28;20037;-71
2023/11/03 00:45:10;;;;;;;8.90;6.80;;;;;;;13.20;100.00;98394.06;5010852;28;20040;-71
2023/11/03 00:47:35;;;;;;;7.68;6.50;;;;;;;12.83;100.00;98371.75;5011331;28;20068;-71
2023/11/03 00:50:01;;;;;;;11.90;6.72;;;;;;;13.19;100.00;98363.56;5019434;28;20050;-71
2023/11/03 00:52:26;;;;;;;8.38;6.53;;;;;;;13.10;100.00;98371.41;5020196;28;20459;-71
2023/11/03 00:54:53;;;;;;;7.30;6.20;;;;;;;13.01;100.00;98381.16;5011131;28;20060;-70
2023/11/03 00:57:18;;;;;;;11.48;7.25;;;;;;;13.05;100.00;98384.16;5009992;28;20037;-72
2023/11/03 00:59:44;;;;;;;10.05;6.90;;;;;;;13.00;100.00;98370.66;5009772;28;20408;-71
2023/11/03 01:02:11;;;;;;;9.25;6.28;;;;;;;13.00;100.00;98374.16;5009802;28;20041;-71
2023/11/03 01:04:37;;;;;;;10.73;6.90;;;;;;;12.98;100.00;98373.63;5009456;28;20033;-71
2023/11/03 01:07:03;;;;;;;9.75;6.82;;;;;;;13.15;100.00;98347.13;5010590;28;20030;-71
2023/11/03 01:09:29;;;;;;;7.97;5.95;;;;;;;12.86;100.00;98340.72;5026515;28;20026;-71
2023/11/03 01:11:55;;;;;;;10.48;6.75;;;;;;;13.33;100.00;98366.50;5012543;28;20033;-71
2023/11/03 01:14:22;;;;;;;9.10;6.32;;;;;;;12.92;100.00;98358.53;5016302;28;20036;-71
2023/11/03 01:16:49;;;;;;;10.43;6.95;;;;;;;13.02;100.00;98363.09;5014019;28;20034;-71
2023/11/03 01:19:17;;;;;;;10.73;6.43;;;;;;;12.84;100.00;98341.00;5012820;28;20038;-71
2023/11/03 01:21:44;;;;;;;10.93;7.40;;;;;;;13.06;100.00;98359.56;5013947;28;20022;-71
2023/11/03 01:24:11;;;;;;;12.88;7.90;;;;;;;13.11;100.00;98362.25;5013951;28;20473;-71
2023/11/03 01:26:40;;;;;;;10.68;7.40;;;;;;;12.94;100.00;98348.25;5029297;28;20449;-71
2023/11/03 01:29:05;;;;;;;9.82;7.55;;;;;;;13.00;100.00;98359.84;5010228;28;20492;-71
2023/11/03 01:31:32;;;;;;;10.52;6.55;;;;;;;12.90;100.00;98344.50;5013533;28;20038;-71
2023/11/03 01:33:58;;;;;;;11.57;7.60;;;;;;;13.13;100.00;98368.16;5028737;28;20030;-71
2023/11/03 01:36:23;;;;;;;9.60;7.30;;;;;;;13.11;100.00;98356.84;5014211;28;20134;-71
2023/11/03 01:38:51;;;;;;;10.15;7.18;;;;;;;13.15;100.00;98349.81;5012685;28;20026;-71
2023/11/03 01:41:17;;;;;;;10.90;7.20;;;;;;;12.96;100.00;98342.59;5012558;28;20141;-72
2023/11/03 01:44:06;;;;;;;9.88;6.85;;;;;;;12.86;100.00;98338.03;5028969;28;20109;-71
2023/11/03 01:46:33;;;;;;;14.57;7.78;;;;;;;13.16;100.00;98339.81;5013659;28;20113;-71
2023/11/03 01:48:58;;;;;;;11.15;8.25;;;;;;;13.17;100.00;98322.53;5012377;28;20060;-71
2023/11/03 01:51:24;;;;;;;10.45;7.50;;;;;;;12.95;100.00;98336.38;4980000;28;20037;-71
2023/11/03 01:53:50;;;;;;;9.05;7.30;;;;;;;13.06;100.00;98332.56;5012881;28;20049;-70
2023/11/03 01:56:16;;;;;;;12.13;7.90;;;;;;;13.02;100.00;98338.81;5013723;28;20033;-71
2023/11/03 01:58:42;;;;;;;9.80;7.65;;;;;;;13.21;100.00;98344.38;5022155;28;20036;-71
2023/11/03 02:01:08;;;;;;;11.27;7.78;;;;;;;12.92;100.00;98351.25;5046763;28;20030;-71
2023/11/03 02:03:33;;;;;;;9.27;8.05;;;;;;;12.68;100.00;98340.25;5025221;28;20033;-71
2023/11/03 02:05:59;;;;;;;12.35;9.18;;;;;;;12.60;100.00;98327.28;5012298;28;20038;-71
2023/11/03 02:08:24;;;;;;;14.32;9.02;;;;;;;12.81;100.00;98344.22;5013288;28;20538;-71
2023/11/03 02:10:50;;;;;;;11.52;8.52;;;;;;;12.77;100.00;98339.66;5011902;28;20045;-71
2023/11/03 02:13:15;;;;;;;12.98;9.15;;;;;;;13.00;100.00;98332.84;5011540;28;20088;-71
2023/11/03 02:15:41;;;;;;;11.50;8.75;;;;;;;13.11;100.00;98310.13;5011559;28;20030;-71
2023/11/03 02:18:09;;;;;;;12.65;8.98;;;;;;;12.79;100.00;98294.34;5011791;28;20057;-71
2023/11/03 02:20:35;;;;;;;15.55;9.77;;;;;;;13.00;100.00;98298.56;5012618;28;20036;-71
2023/11/03 02:23:00;;;;;;;13.23;10.07;;;;;;;13.31;100.00;98306.56;5011077;28;20033;-71
2023/11/03 02:25:27;;;;;;;12.88;9.65;;;;;;;13.39;100.00;98309.47;5011465;28;20038;-71
2023/11/03 02:27:52;;;;;;;13.10;10.10;;;;;;;13.23;100.00;98289.00;5011777;28;20485;-71
2023/11/03 02:30:18;;;;;;;11.43;9.27;;;;;;;12.85;100.00;98277.84;5012686;28;20034;-71
2023/11/03 02:32:43;;;;;;;13.38;10.25;;;;;;;13.07;100.00;98301.78;5012569;28;20087;-71
2023/11/03 02:35:09;;;;;;;12.65;9.77;;;;;;;12.74;100.00;98270.84;5012177;28;20500;-71
2023/11/03 02:37:35;;;;;;;12.55;9.82;;;;;;;12.99;100.00;98296.97;4995265;28;20033;-71
2023/11/03 02:40:01;;;;;;;14.40;10.15;;;;;;;12.85;100.00;98295.94;5011442;28;20034;-71
2023/11/03 02:42:26;;;;;;;14.10;10.73;;;;;;;12.89;100.00;98294.31;4995185;28;20026;-71
2023/11/03 02:44:52;;;;;;;14.30;10.73;;;;;;;12.83;100.00;98290.81;5011333;28;20033;-72
2023/11/03 02:47:17;;;;;;;12.77;10.38;;;;;;;12.86;100.00;98284.06;5011490;28;20042;-71
2023/11/03 02:49:42;;;;;;;14.88;10.30;;;;;;;12.55;100.00;98280.63;5011351;28;20073;-71
2023/11/03 02:52:08;;;;;;;15.38;10.52;;;;;;;12.71;100.00;98276.81;4994187;28;20388;-71
2023/11/03 02:54:33;;;;;;;14.48;10.32;;;;;;;12.56;100.00;98280.38;5011475;28;20033;-72
2023/11/03 02:56:58;;;;;;;12.80;10.48;;;;;;;12.89;100.00;98288.91;5011131;28;20037;-71
2023/11/03 02:59:24;;;;;;;11.35;10.02;;;;;;;12.78;100.00;98303.50;5011139;28;20041;-71
2023/11/03 03:01:49;;;;;;;13.57;10.77;;;;;;;12.79;100.00;98311.34;5010453;28;20370;-71
2023/11/03 03:04:15;;;;;;;15.48;10.90;;;;;;;12.80;100.00;98301.34;5010441;28;20030;-71
2023/11/03 03:06:45;;;;;;;14.40;10.43;;;;;;;12.75;100.00;98304.03;5012236;28;20083;-71
2023/11/03 03:09:11;;;;;;;13.65;10.07;;;;;;;12.67;100.00;98313.50;5012193;28;20116;-71
2023/11/03 03:11:37;;;;;;;11.52;10.32;;;;;;;12.73;100.00;98307.03;5010523;28;20076;-71
2023/11/03 03:14:02;;;;;;;13.18;10.80;;;;;;;12.59;100.00;98309.50;5010581;28;20049;-72
2023/11/03 03:16:27;;;;;;;11.43;10.05;;;;;;;12.70;100.00;98313.78;5011632;28;20440;-71
2023/11/03 03:18:53;;;;;;;12.75;10.25;;;;;;;12.74;100.00;98289.75;4994468;28;20042;-72
2023/11/03 03:21:18;;;;;;;13.88;10.35;;;;;;;12.61;100.00;98266.84;5011388;28;20034;-71
2023/11/03 03:23:44;;;;;;;17.65;10.30;;;;;;;12.75;100.00;98286.00;5010452;28;20029;-73
2023/11/03 03:26:09;;;;;;;12.65;10.20;;;;;;;12.70;100.00;98292.19;5011458;28;20026;-71
2023/11/03 03:28:35;;;;;;;12.80;9.98;;;;;;;12.76;100.00;98306.47;5011046;28;20041;-71
2023/11/03 03:31:01;;;;;;;16.70;10.18;;;;;;;12.61;100.00;98303.81;5010649;28;20033;-71
2023/11/03 03:33:27;;;;;;;14.10;10.18;;;;;;;12.89;100.00;98308.59;5011147;28;20088;-71
2023/11/03 03:35:52;;;;;;;14.13;10.75;;;;;;;12.76;100.00;98300.28;5010186;28;20026;-71
2023/11/03 03:38:18;;;;;;;18.80;10.52;;;;;;;12.75;100.00;98301.34;5011682;28;20029;-71
2023/11/03 03:40:43;;;;;;;15.15;9.88;;;;;;;12.73;100.00;98312.44;5011554;28;20444;-71
2023/11/03 03:43:08;;;;;;;13.48;10.57;;;;;;;12.44;100.00;98301.44;5011213;28;20124;-72
2023/11/03 03:45:34;;;;;;;13.35;10.65;;;;;;;12.33;100.00;98302.53;5010659;28;20069;-71
2023/11/03 03:47:59;;;;;;;12.70;10.38;;;;;;;12.62;100.00;98308.94;5009644;28;20543;-71
2023/11/03 03:50:24;;;;;;;17.92;10.75;;;;;;;12.46;100.00;98296.56;4993900;28;20132;-72
2023/11/03 03:52:50;;;;;;;14.90;10.68;;;;;;;12.62;100.00;98289.25;5010153;28;20505;-72
2023/11/03 03:55:15;;;;;;;14.32;9.70;;;;;;;12.19;100.00;98278.81;4993170;28;20033;-72
2023/11/03 03:57:41;;;;;;;13.40;9.98;;;;;;;12.37;100.00;98290.13;5026047;28;20734;-72
2023/11/03 04:00:07;;;;;;;13.90;10.50;;;;;;;12.64;100.00;98284.38;5010515;28;20038;-71
2023/11/03 04:02:33;;;;;;;14.95;11.13;;;;;;;12.63;100.00;98280.88;5012021;28;20029;-72
2023/11/03 04:04:58;;;;;;;15.35;10.98;;;;;;;12.37;100.00;98268.53;4993055;28;20547;-72
2023/11/03 04:07:24;;;;;;;13.32;11.63;;;;;;;12.78;100.00;98263.03;5010762;28;20045;-72
2023/11/03 04:09:50;;;;;;;15.15;10.95;;;;;;;12.77;100.00;98272.22;5009650;28;20061;-72
2023/11/03 04:12:15;;;;;;;14.45;11.50;;;;;;;12.79;100.00;98278.94;5009352;28;20797;-72
2023/11/03 04:14:40;;;;;;;13.38;11.48;;;;;;;12.78;100.00;98268.41;5011076;28;20069;-72
2023/11/03 04:17:07;;;;;;;13.80;11.10;;;;;;;12.64;100.00;98252.00;5009735;28;20121;-72
2023/11/03 04:19:32;;;;;;;16.83;11.50;;;;;;;12.83;100.00;98254.91;5009770;28;20034;-72
2023/11/03 04:21:58;;;;;;;13.82;10.95;;;;;;;12.71;100.00;98252.53;5010560;28;20061;-71
2023/11/03 04:24:23;;;;;;;13.48;11.00;;;;;;;12.68;100.00;98251.19;5026328;28;20030;-72
2023/11/03 04:26:49;;;;;;;15.10;10.95;;;;;;;12.72;100.00;98239.88;5009840;28;20500;-72
2023/11/03 04:29:14;;;;;;;14.30;10.88;;;;;;;12.68;100.00;98216.13;5010002;28;20030;-72
2023/11/03 04:31:40;;;;;;;12.85;10.32;;;;;;;12.50;100.00;98226.72;5009914;28;20053;-72
2023/11/03 04:34:06;;;;;;;15.98;10.55;;;;;;;12.41;100.00;98215.66;5009403;28;20034;-72
2023/11/03 04:36:31;;;;;;;15.82;11.57;;;;;;;12.85;100.00;98217.69;5011218;28;20535;-72
2023/11/03 04:38:57;;;;;;;15.35;11.25;;;;;;;12.75;100.00;98223.09;5011105;28;20037;-71
2023/11/03 04:41:22;;;;;;;14.50;11.35;;;;;;;12.81;100.00;98222.78;4998556;28;20033;-72
2023/11/03 04:43:48;;;;;;;14.43;12.02;;;;;;;12.93;100.00;98211.69;5010948;28;20033;-71
2023/11/03 04:46:13;;;;;;;14.35;10.65;;;;;;;12.70;100.00;98200.44;5010020;28;21034;-71
2023/11/03 04:48:39;;;;;;;14.25;12.45;;;;;;;12.97;100.00;98226.25;5027662;28;20022;-71
2023/11/03 04:51:06;;;;;;;18.30;12.40;;;;;;;12.97;100.00;98226.25;5022489;28;20064;-71
2023/11/03 04:53:32;;;;;;;17.17;12.80;;;;;;;12.96;100.00;98232.72;5030726;28;20049;-70
2023/11/03 04:55:57;;;;;;;19.10;13.43;;;;;;;12.77;100.00;98221.75;5031227;28;20125;-71
2023/11/03 04:58:23;;;;;;;16.15;13.45;;;;;;;12.83;100.00;98222.53;5012526;28;20900;-71
2023/11/03 05:00:49;;;;;;;17.10;13.35;;;;;;;12.84;100.00;98200.66;5013173;28;20522;-71
2023/11/03 05:03:14;;;;;;;16.52;13.48;;;;;;;12.66;100.00;98218.28;5013966;28;20040;-70
2023/11/03 05:05:41;;;;;;;16.90;13.45;;;;;;;12.91;100.00;98219.25;5013699;28;20018;-70
2023/11/03 05:08:08;;;;;;;17.35;14.23;;;;;;;12.97;100.00;98220.84;5013579;28;20018;-70
2023/11/03 05:10:33;;;;;;;14.63;13.13;;;;;;;12.76;100.00;98216.63;5011706;28;20034;-70
2023/11/03 05:12:59;;;;;;;14.73;12.35;;;;;;;12.49;100.00;98208.91;5028236;28;20083;-70
2023/11/03 05:15:25;;;;;;;18.75;13.20;;;;;;;12.50;100.00;98203.25;5012478;28;20124;-70
2023/11/03 05:17:50;;;;;;;18.02;13.48;;;;;;;12.55;100.00;98197.84;5014091;28;20037;-70
2023/11/03 05:20:16;;;;;;;16.77;12.43;;;;;;;12.38;100.00;98205.44;5013949;28;20459;-70
2023/11/03 05:22:41;;;;;;;17.10;13.02;;;;;;;12.25;100.00;98204.13;5014555;28;20046;-68
2023/11/03 05:25:07;;;;;;;15.77;13.50;;;;;;;12.54;100.00;98196.19;5020246;28;20033;-69
2023/11/03 05:27:32;;;;;;;14.90;11.27;;;;;;;12.26;100.00;98177.97;5014968;28;20113;-68
2023/11/03 05:30:01;;;;;;;16.25;13.13;;;;;;;12.26;100.00;98159.09;5013510;28;20052;-66
2023/11/03 05:32:26;;;;;;;16.50;13.27;;;;;;;12.51;100.00;98187.84;5014851;28;20033;-69
2023/11/03 05:34:52;;;;;;;13.35;11.90;;;;;;;12.63;100.00;98180.25;5028536;28;20038;-68
2023/11/03 05:37:17;;;;;;;16.50;13.10;;;;;;;12.63;100.00;98172.16;5010502;28;20083;-68
2023/11/03 05:39:43;;;;;;;17.30;12.60;;;;;;;12.68;100.00;98180.22;5011936;28;20520;-70
2023/11/03 05:42:08;;;;;;;13.88;11.07;;;;;;;12.51;100.00;98174.38;5013953;28;20057;-70
2023/11/03 05:44:34;;;;;;;15.95;12.25;;;;;;;12.56;100.00;98164.38;5012168;28;20038;-70
2023/11/03 05:47:00;;;;;;;16.05;12.40;;;;;;;12.63;100.00;98159.47;5012442;28;20034;-70
2023/11/03 05:49:27;;;;;;;14.98;12.60;;;;;;;12.73;100.00;98155.94;5013364;28;20046;-70
2023/11/03 05:51:52;;;;;;;14.77;11.52;;;;;;;12.61;100.00;98158.13;5015112;28;20413;-70
2023/11/03 05:54:18;;;;;;;14.13;12.10;;;;;;;12.68;100.00;98148.69;5026538;28;20036;-70
2023/11/03 05:56:43;;;;;;;13.70;11.27;;;;;;;12.46;100.00;98146.34;5023954;28;20022;-70
2023/11/03 05:59:11;;;;;;;13.25;11.82;;;;;;;12.48;100.00;98148.75;5021470;28;20041;-70
2023/11/03 06:01:36;;;;;;;13.35;11.32;;;;;;;12.63;100.00;98158.69;5011183;28;20466;-70
2023/11/03 06:04:02;;;;;;;15.15;11.73;;;;;;;12.54;100.00;98158.44;5010801;28;20109;-70
2023/11/03 06:06:28;;;;;;;16.02;12.18;;;;;;;12.27;100.00;98158.03;5011036;28;20080;-70
2023/11/03 06:08:55;;;;;;;15.23;12.50;;;;;;;12.71;100.00;98174.28;5026155;28;20432;-70
2023/11/03 06:11:20;;;;;;;15.57;12.68;;;;;;;12.86;100.00;98182.31;5011605;28;20033;-70
2023/11/03 06:13:46;;;;;;;14.88;11.70;;;;;;;13.03;100.00;98181.94;5009880;28;20041;-69
2023/11/03 06:16:13;;;;;;;14.98;11.63;;;;;;;12.90;100.00;98174.44;5012233;28;20489;-69
2023/11/03 06:18:40;;;;;;;16.20;11.73;;;;;;;12.86;100.00;98168.00;5013232;28;20037;-70
2023/11/03 06:21:06;;;;;;;14.05;11.73;;;;;;;12.94;100.00;98170.91;5012991;28;20022;-70
2023/11/03 06:23:31;;;;;;;13.25;11.75;;;;;;;12.89;100.00;98164.75;5012283;28;20400;-71
2023/11/03 06:25:57;;;;;;;13.57;11.07;;;;;;;12.94;100.00;98176.31;5011630;28;20169;-70
2023/11/03 06:28:22;;;;;;;12.52;10.70;;;;;;;12.97;100.00;98183.03;5012675;28;20042;-70
2023/11/03 06:30:48;;;;;;;13.55;10.30;;;;;;;12.87;100.00;98188.50;5012523;28;20021;-70
2023/11/03 06:33:14;;;;;;;13.30;10.40;;;;;;;12.80;100.00;98183.41;5011112;28;20040;-70
2023/11/03 06:35:40;;;;;;;14.20;10.40;;;;;;;12.93;100.00;98182.00;5012565;28;20018;-70
2023/11/03 06:38:06;;;;;;;11.32;9.45;;;;;;;12.94;100.00;98180.91;5027315;28;20044;-70
2023/11/03 06:40:32;;;;;;;11.10;9.98;;;;;;;13.05;100.00;98179.78;5003901;28;20503;-70
2023/11/03 06:42:58;;;;;;;11.25;9.65;;;;;;;13.06;100.00;98181.38;5012835;28;20042;-70
2023/11/03 06:45:23;;;;;;;12.52;9.75;;;;;;;13.04;100.00;98178.13;5011751;28;20483;-70
2023/11/03 06:47:49;;;;;;;12.40;9.45;;;;;;;12.97;100.00;98179.53;5027422;28;20083;-69
2023/11/03 06:50:14;;;;;;;11.32;8.98;;;;;;;13.06;100.00;98183.28;5010341;28;20050;-70
2023/11/03 06:52:39;;;;;;;10.52;8.68;;;;;;;13.08;100.00;98163.03;5012076;28;20053;-70
2023/11/03 06:55:07;;;;;;;10.00;8.68;;;;;;;13.03;100.00;98149.53;5011748;28;20071;-70
2023/11/03 06:57:32;;;;;;;11.98;8.48;;;;;;;12.91;100.00;98130.19;5011818;28;20037;-70
2023/11/03 06:59:57;;;;;;;10.40;8.02;;;;;;;12.71;100.00;98136.50;5010106;28;20037;-70
2023/11/03 07:02:23;;;;;;;8.18;7.15;;;;;;;12.80;100.00;98134.84;5043342;28;20046;-70
2023/11/03 07:04:48;;;;;;;9.40;7.28;;;;;;;12.97;100.00;98155.25;5030122;28;20026;-70
2023/11/03 07:07:14;;;;;;;9.02;7.22;;;;;;;13.09;100.00;98153.03;5014819;28;20055;-70
2023/11/03 07:09:39;;;;;;;9.30;6.80;;;;;;;13.00;100.00;98147.41;5011840;28;20139;-70
2023/11/03 07:12:06;;;;;;;9.27;7.18;;;;;;;12.95;100.00;98158.25;5008909;28;20033;-70
2023/11/03 07:14:31;;;;;;;9.40;7.07;;;;;;;12.94;100.00;98140.41;5010083;28;20030;-70
2023/11/03 07:16:57;;;;;;;10.35;6.65;;;;;;;12.87;100.00;98151.53;5010076;28;20029;-70
2023/11/03 07:19:22;;;;;;;10.07;6.90;;;;;;;12.88;100.00;98153.16;5009786;28;20042;-70
2023/11/03 07:21:49;;;;;;;10.63;6.90;;;;;;;12.73;100.00;98147.03;5010629;28;20026;-70
2023/11/03 07:24:14;;;;;;;9.73;6.63;;;;;;;12.86;100.00;98159.91;5010286;28;20026;-70
2023/11/03 07:26:40;;;;;;;9.50;6.22;;;;;;;12.63;100.00;98172.97;5011891;28;20029;-70
2023/11/03 07:29:05;;;;;;;6.20;5.60;;;;;;;12.61;100.00;98161.63;5012016;28;20046;-70
2023/11/03 07:31:31;;;;;;;8.13;6.22;;;;;;;12.68;100.00;98175.66;5010816;28;20033;-70
2023/11/03 07:33:58;;;;;;;8.20;6.78;;;;;;;12.76;100.00;98184.25;5011692;28;20147;-70
2023/11/03 07:36:25;;;;;;;9.85;6.65;;;;;;;12.66;100.00;98187.81;5027378;28;20059;-70
2023/11/03 07:38:51;;;;;;;9.95;6.85;;;;;;;12.67;100.00;98159.72;5012027;28;20039;-70
2023/11/03 07:41:16;;;;;;;7.60;6.40;;;;;;;12.67;100.00;98168.63;5011816;28;20025;-70
2023/11/03 07:43:41;;;;;;;8.73;6.72;;;;;;;12.76;100.00;98179.66;5011587;28;20029;-70
2023/11/03 07:46:07;;;;;;;7.50;6.65;;;;;;;12.97;100.00;98176.84;5011199;28;20503;-70
2023/11/03 07:48:32;;;;;;;10.35;6.90;;;;;;;13.02;100.00;98188.44;5011300;28;20115;-70
2023/11/03 07:50:59;;;;;;;9.07;6.68;;;;;;;12.91;100.00;98185.00;5011290;28;20079;-70
2023/11/03 07:53:25;;;;;;;7.75;6.95;;;;;;;12.70;100.00;98173.47;5010330;28;20400;-70
2023/11/03 07:55:50;;;;;;;10.45;7.10;;;;;;;12.68;100.00;98145.97;5026584;28;20034;-70
2023/11/03 07:58:16;;;;;;;8.38;6.35;;;;;;;12.57;100.00;98152.50;5011142;28;20437;-70
2023/11/03 08:00:41;;;;;;;7.07;6.35;;;;;;;12.65;100.00;98151.94;5009986;28;20037;-70
2023/11/03 08:03:07;;;;;;;8.55;7.10;;;;;;;12.83;100.00;98149.66;5010000;28;20099;-70
2023/11/03 08:05:39;;;;;;;10.77;7.25;;;;;;;12.93;100.00;98155.00;5012568;28;20092;-70
2023/11/03 08:08:05;;;;;;;8.55;7.65;;;;;;;13.08;100.00;98136.03;5013857;28;20022;-70
2023/11/03 08:10:30;;;;;;;9.27;7.50;;;;;;;13.16;100.00;98148.91;5011425;28;20420;-70
2023/11/03 08:12:58;;;;;;;9.20;7.25;;;;;;;13.04;100.00;98142.25;5011169;28;20034;-70
2023/11/03 08:15:23;;;;;;;11.48;7.72;;;;;;;13.32;100.00;98148.84;5010216;28;20033;-70
2023/11/03 08:17:49;;;;;;;8.20;7.40;;;;;;;13.45;100.00;98140.09;5011645;28;20030;-70
2023/11/03 08:20:15;;;;;;;8.32;7.40;;;;;;;13.46;100.00;98139.00;5017079;28;20033;-70
2023/11/03 08:22:47;;;;;;;8.43;6.50;;;;;;;13.38;100.00;98139.63;5035387;28;20033;-71
2023/11/03 08:25:12;;;;;;;8.68;6.88;;;;;;;13.22;100.00;98113.78;5035743;28;20025;-70
2023/11/03 08:27:38;;;;;;;7.82;7.03;;;;;;;13.43;100.00;98136.84;5017615;28;20404;-70
2023/11/03 08:30:06;;;;;;;9.85;7.35;;;;;;;13.48;100.00;98126.03;5016638;28;20532;-70
2023/11/03 08:32:31;;;;;;;8.57;7.25;;;;;;;13.56;100.00;98127.28;5033035;28;20034;-70
2023/11/03 08:34:57;;;;;;;12.45;6.57;;;;;;;13.55;100.00;98129.19;5017909;28;20030;-70
2023/11/03 08:37:22;;;;;;;9.45;6.63;;;;;;;13.56;100.00;98138.91;5017285;28;20033;-70
2023/11/03 08:39:48;;;;;;;8.90;7.07;;;;;;;13.50;100.00;98141.94;5017130;28;20432;-70
2023/11/03 08:42:14;;;;;;;8.18;6.63;;;;;;;13.58;100.00;98128.63;5017504;28;20026;-70
2023/11/03 08:44:40;;;;;;;10.07;6.70;;;;;;;13.57;100.00;98132.41;5017500;28;20026;-70
2023/11/03 08:47:07;;;;;;;8.23;6.50;;;;;;;13.69;100.00;98144.75;5017361;28;20032;-70
2023/11/03 08:49:34;;;;;;;8.95;6.75;;;;;;;13.67;100.00;98149.63;4999662;28;20056;-70
2023/11/03 08:51:59;;;;;;;8.70;6.70;;;;;;;13.76;100.00;98158.72;5016320;28;20034;-70
2023/11/03 08:54:25;;;;;;;6.97;6.25;;;;;;;13.66;100.00;98161.53;5016457;28;20040;-70
2023/11/03 08:56:50;;;;;;;7.20;6.30;;;;;;;13.75;100.00;98159.81;5030933;28;20025;-70
2023/11/03 08:59:17;;;;;;;7.97;6.30;;;;;;;13.78;100.00;98162.75;5021269;28;20468;-70
2023/11/03 09:01:43;;;;;;;8.48;6.55;;;;;;;13.64;100.00;98172.59;5020101;28;20034;-71
2023/11/03 09:04:09;;;;;;;9.48;6.07;;;;;;;13.77;100.00;98168.44;5000972;28;20026;-70
2023/11/03 09:06:36;;;;;;;8.05;6.43;;;;;;;13.88;100.00;98166.47;5018444;28;20397;-70
2023/11/03 09:09:02;;;;;;;9.18;6.88;;;;;;;13.93;100.00;98171.81;5018173;28;20040;-70
2023/11/03 09:11:28;;;;;;;7.25;6.25;;;;;;;13.89;100.00;98176.97;5017582;28;20029;-70
2023/11/03 09:13:59;;;;;;;8.43;6.10;;;;;;;13.94;100.00;98176.94;5017343;28;20038;-70
2023/11/03 09:16:25;;;;;;;9.57;5.60;;;;;;;13.94;100.00;98192.34;5017806;28;20030;-70
2023/11/03 09:18:52;;;;;;;6.63;5.05;;;;;;;13.91;100.00;98185.63;5017685;28;20036;-70
2023/11/03 09:21:18;;;;;;;6.43;4.85;;;;;;;13.99;100.00;98192.31;5016796;28;20054;-70
2023/11/03 09:23:44;;;;;;;6.28;4.68;;;;;;;14.03;100.00;98201.44;5017331;28;20025;-70
2023/11/03 09:26:09;;;;;;;7.18;4.40;;;;;;;14.09;100.00;98200.31;5017392;28;20025;-70
2023/11/03 09:28:35;;;;;;;6.63;4.50;;;;;;;14.04;100.00;98206.59;5015622;28;20033;-70
2023/11/03 09:31:00;;;;;;;5.22;4.40;;;;;;;14.06;100.00;98209.00;5016247;28;20029;-70
2023/11/03 09:33:26;;;;;;;7.38;4.50;;;;;;;14.14;100.00;98216.50;5013187;28;20034;-70
2023/11/03 09:35:51;;;;;;;5.10;3.92;;;;;;;13.82;100.00;98176.50;5014146;28;20042;-70
2023/11/03 09:38:19;;;;;;;7.13;4.10;;;;;;;14.00;100.00;98216.34;5029256;28;20113;-70
2023/11/03 09:40:47;;;;;;;5.30;3.92;;;;;;;13.67;100.00;98160.44;5016560;28;20061;-70
2023/11/03 09:43:16;;;;;;;5.40;3.28;;;;;;;13.97;100.00;98211.53;5019007;28;20037;-70
2023/11/03 09:45:42;;;;;;;5.38;3.40;;;;;;;14.07;100.00;98197.91;5014400;28;20029;-70
2023/11/03 09:48:08;;;;;;;6.03;3.70;;;;;;;13.99;100.00;98181.47;5014670;28;20042;-70
2023/11/03 09:50:37;;;;;;;6.03;3.78;;;;;;;14.04;100.00;98173.34;5014678;28;20065;-70
2023/11/03 09:53:11;;;;;;;5.75;3.67;;;;;;;14.10;100.00;98183.81;5029754;28;20137;-70
2023/11/03 09:55:41;;;;;;;4.82;3.30;;;;;;;14.14;100.00;98175.94;5029168;28;20028;-70
2023/11/03 09:58:07;;;;;;;6.13;3.50;;;;;;;14.08;100.00;98150.84;5013862;28;20365;-70
2023/11/03 10:00:34;;;;;;;4.38;2.97;;;;;;;14.05;100.00;98181.16;5015023;28;20040;-71
2023/11/03 10:03:01;;;;;;;4.43;2.85;;;;;;;14.14;100.00;98177.81;5015197;28;20036;-70
2023/11/03 10:05:29;;;;;;;4.82;3.38;;;;;;;14.17;100.00;98180.78;5013937;28;20779;-70
2023/11/03 10:08:05;;;;;;;5.13;3.60;;;;;;;14.28;100.00;98174.16;5012831;28;20125;-71
2023/11/03 10:10:36;;;;;;;5.70;3.33;;;;;;;14.23;100.00;98160.66;4995739;28;20029;-70
2023/11/03 10:13:04;;;;;;;4.30;3.03;;;;;;;14.40;100.00;98164.81;5013302;28;20580;-71
2023/11/03 10:15:29;;;;;;;5.00;3.10;;;;;;;14.37;100.00;98170.78;5013312;28;20029;-70
2023/11/03 10:17:56;;;;;;;3.50;2.78;;;;;;;14.35;100.00;98162.97;5013110;28;20546;-70
2023/11/03 10:20:24;;;;;;;7.60;3.38;;;;;;;14.39;100.00;98166.72;5012711;28;20440;-71
2023/11/03 10:22:50;;;;;;;5.45;3.20;;;;;;;14.45;100.00;98164.75;5013375;28;20026;-71
2023/11/03 10:25:16;;;;;;;4.90;3.15;;;;;;;14.42;100.00;98152.63;5012909;28;20037;-70
2023/11/03 10:27:42;;;;;;;5.43;3.10;;;;;;;14.36;100.00;98147.56;5012987;28;20026;-71
2023/11/03 10:30:09;;;;;;;5.15;2.97;;;;;;;14.42;100.00;98152.63;5028082;28;20104;-70
2023/11/03 10:32:35;;;;;;;6.10;3.10;;;;;;;14.40;100.00;98145.88;5012825;28;20044;-71
2023/11/03 10:35:05;;;;;;;7.45;3.10;;;;;;;14.50;100.00;98153.84;5011687;28;20038;-70
2023/11/03 10:37:34;;;;;;;4.47;2.90;;;;;;;14.45;100.00;98145.81;5013267;28;20400;-71
2023/11/03 10:40:00;;;;;;;3.70;2.50;;;;;;;14.44;100.00;98130.69;5012009;28;20026;-71
2023/11/03 10:42:28;;;;;;;4.45;2.60;;;;;;;14.34;100.00;98129.72;5027951;28;20026;-71
2023/11/03 10:44:57;;;;;;;3.47;2.22;;;;;;;14.25;100.00;98147.66;5011647;28;20091;-71
2023/11/03 10:47:27;;;;;;;7.03;2.67;;;;;;;14.31;100.00;98146.53;5011924;28;20033;-70
2023/11/03 10:50:05;;;;;;;4.60;2.38;;;;;;;14.30;100.00;98122.44;5012735;28;20068;-71
2023/11/03 10:52:41;;;;;;;2.88;2.05;;;;;;;14.46;100.00;98132.00;5013176;28;20041;-71
2023/11/03 10:55:25;;;;;;;3.30;2.28;;;;;;;14.65;100.00;98134.75;5012599;28;20057;-70
2023/11/03 10:57:53;;;;;;;3.63;2.13;;;;;;;14.57;100.00;98143.53;5011345;28;20036;-71
2023/11/03 11:00:54;;;;;;;3.53;1.70;;;;;;;14.71;100.00;98154.47;5011672;28;20040;-70
2023/11/03 11:03:30;;;;;;;5.63;2.10;;;;;;;14.67;100.00;98150.69;4971605;28;20056;-71
2023/11/03 11:06:38;;;;;;;4.85;2.00;;;;;;;14.70;100.00;98139.28;5005912;28;20528;-71
2023/11/03 11:09:17;;;;;;;2.65;2.08;;;;;;;14.73;100.00;98130.59;4999315;28;20506;-70
2023/11/03 11:11:45;;;;;;;4.13;2.00;;;;;;;14.71;100.00;98138.22;5018810;28;20021;-71
2023/11/03 11:14:24;;;;;;;7.78;2.25;;;;;;;14.62;100.00;98135.34;5017030;28;20044;-70